createdAt,value
2022-09-20T00:01:36.017Z,9.20
2022-09-20T00:04:07.110Z,9.20
2022-09-20T00:06:36.072Z,9.20
2022-09-20T00:09:05.868Z,9.20
2022-09-20T00:11:36.791Z,9.20
2022-09-20T00:14:09.415Z,9.20
2022-09-20T00:16:41.996Z,9.20
2022-09-20T00:19:19.991Z,7.90
2022-09-20T00:21:49.104Z,9.20
2022-09-20T00:24:17.417Z,9.20
2022-09-20T00:26:45.791Z,9.20
2022-09-20T00:29:14.213Z,9.20
2022-09-20T00:31:43.037Z,9.20
2022-09-20T00:34:30.835Z,9.20
2022-09-20T00:36:59.471Z,9.20
2022-09-20T00:39:28.010Z,9.20
2022-09-20T00:41:56.412Z,9.20
2022-09-20T00:44:56.678Z,9.20
2022-09-20T00:47:37.932Z,9.20
2022-09-20T00:50:27.642Z,9.20
2022-09-20T00:53:03.495Z,9.30
2022-09-20T00:55:32.357Z,9.30
2022-09-20T00:58:01.635Z,9.70
2022-09-20T01:00:30.554Z,9.30
2022-09-20T01:03:06.656Z,9.30
2022-09-20T01:05:38.893Z,9.30
2022-09-20T01:08:08.148Z,9.30
2022-09-20T01:10:37.342Z,8.60
2022-09-20T01:13:05.909Z,9.20
2022-09-20T01:15:38.070Z,9.10
2022-09-20T01:18:08.760Z,9.20
2022-09-20T01:20:43.166Z,9.10
2022-09-20T01:23:31.929Z,9.10
2022-09-20T01:26:46.798Z,9.20
2022-09-20T01:29:40.934Z,9.00
2022-09-20T01:32:17.480Z,9.60
2022-09-20T01:34:53.024Z,9.20
2022-09-20T01:37:28.669Z,9.20
2022-09-20T01:40:11.264Z,9.20
2022-09-20T01:42:52.610Z,9.20
2022-09-20T01:45:29.675Z,9.20
2022-09-20T01:48:14.598Z,9.20
2022-09-20T01:51:24.566Z,9.10
2022-09-20T01:55:01.776Z,9.10
2022-09-20T01:58:11.525Z,9.20
2022-09-20T02:01:08.446Z,9.20
2022-09-20T02:04:06.288Z,9.20
2022-09-20T02:06:57.171Z,9.10
2022-09-20T02:10:02.387Z,9.20
2022-09-20T02:12:55.337Z,9.20
2022-09-20T02:16:05.679Z,9.30
2022-09-20T02:18:57.686Z,9.20
2022-09-20T02:21:36.758Z,9.20
2022-09-20T02:24:24.120Z,9.20
2022-09-20T02:27:15.536Z,9.20
2022-09-20T02:30:01.767Z,9.20
2022-09-20T02:33:08.240Z,9.20
2022-09-20T02:35:58.259Z,9.20
2022-09-20T02:38:50.769Z,9.20
2022-09-20T02:41:58.682Z,9.20
2022-09-20T02:44:44.965Z,9.20
2022-09-20T02:47:26.657Z,9.20
2022-09-20T02:50:12.762Z,9.10
2022-09-20T02:52:53.159Z,9.20
2022-09-20T02:55:36.653Z,9.10
2022-09-20T02:58:29.263Z,9.10
2022-09-20T03:01:13.856Z,9.10
2022-09-20T03:03:57.838Z,9.10
2022-09-20T03:06:43.858Z,8.90
2022-09-20T03:09:27.278Z,8.90
2022-09-20T03:12:11.577Z,8.70
2022-09-20T03:14:54.694Z,8.70
2022-09-20T03:17:43.535Z,8.70
2022-09-20T03:20:31.316Z,8.60
2022-09-20T03:23:23.556Z,8.50
2022-09-20T03:28:51.676Z,8.50
2022-09-20T03:31:41.173Z,8.50
2022-09-20T03:34:31.443Z,8.60
2022-09-20T03:37:20.268Z,8.50
2022-09-20T03:40:33.915Z,8.50
2022-09-20T03:43:14.173Z,8.50
2022-09-20T03:46:10.444Z,8.40
2022-09-20T03:49:34.475Z,8.40
2022-09-20T03:52:16.845Z,8.40
2022-09-20T03:55:08.405Z,8.50
2022-09-20T03:58:08.738Z,8.50
2022-09-20T04:01:02.736Z,8.50
2022-09-20T04:03:49.324Z,8.50
2022-09-20T04:06:46.431Z,8.50
2022-09-20T04:09:47.633Z,8.50
2022-09-20T04:12:30.834Z,8.50
2022-09-20T04:15:20.853Z,8.50
2022-09-20T04:18:02.487Z,8.80
2022-09-20T04:20:43.045Z,8.50
2022-09-20T04:23:37.452Z,8.50
2022-09-20T04:26:06.556Z,8.50
2022-09-20T04:28:44.274Z,8.40
2022-09-20T04:31:34.360Z,8.50
2022-09-20T04:34:10.548Z,8.50
2022-09-20T04:37:05.008Z,8.40
2022-09-20T04:39:43.833Z,8.20
2022-09-20T04:43:18.694Z,8.20
2022-09-20T04:46:24.671Z,8.20
2022-09-20T04:49:50.946Z,8.40
2022-09-20T04:53:03.244Z,8.40
2022-09-20T04:55:52.393Z,8.50
2022-09-20T04:58:42.279Z,8.40
2022-09-20T05:01:57.547Z,8.90
2022-09-20T05:05:43.550Z,8.60
2022-09-20T05:09:04.526Z,8.40
2022-09-20T05:12:10.159Z,9.90
2022-09-20T05:15:13.908Z,8.40
2022-09-20T05:18:15.991Z,8.40
2022-09-20T05:21:09.368Z,8.50
2022-09-20T05:24:09.480Z,8.50
2022-09-20T05:26:59.413Z,8.60
2022-09-20T05:29:37.676Z,8.60
2022-09-20T05:32:19.428Z,8.60
2022-09-20T05:35:00.135Z,8.70
2022-09-20T05:37:45.324Z,8.70
2022-09-20T05:40:30.310Z,8.70
2022-09-20T05:43:11.305Z,8.70
2022-09-20T05:46:03.666Z,8.80
2022-09-20T05:48:41.734Z,8.80
2022-09-20T05:51:30.153Z,10.30
2022-09-20T05:54:26.115Z,8.80
2022-09-20T05:57:17.176Z,8.70
2022-09-20T06:00:01.988Z,8.70
2022-09-20T06:02:54.038Z,8.80
2022-09-20T06:05:51.100Z,8.80
2022-09-20T06:08:58.767Z,8.80
2022-09-20T06:12:02.999Z,9.60
2022-09-20T06:14:47.738Z,8.90
2022-09-20T06:17:28.694Z,8.90
2022-09-20T06:20:17.307Z,9.10
2022-09-20T06:22:49.741Z,9.10
2022-09-20T06:25:25.720Z,9.20
2022-09-20T06:28:02.375Z,10.20
2022-09-20T06:30:35.495Z,9.20
2022-09-20T06:33:16.716Z,9.30
2022-09-20T06:35:53.818Z,9.40
2022-09-20T06:39:00.612Z,9.50
2022-09-20T06:41:34.006Z,9.60
2022-09-20T06:44:07.282Z,9.60
2022-09-20T06:46:38.480Z,9.80
2022-09-20T06:51:40.281Z,9.90
2022-09-20T06:54:17.819Z,10.00
2022-09-20T06:56:47.405Z,10.10
2022-09-20T06:59:17.020Z,10.10
2022-09-20T07:01:45.310Z,10.30
2022-09-20T07:04:13.520Z,10.40
2022-09-20T07:06:41.969Z,10.50
2022-09-20T07:11:41.306Z,11.90
2022-09-20T07:14:09.610Z,10.80
2022-09-20T07:16:40.080Z,10.80
2022-09-20T07:19:08.284Z,10.90
2022-09-20T07:21:36.467Z,10.80
2022-09-20T07:24:04.885Z,10.90
2022-09-20T07:26:33.592Z,11.00
2022-09-20T07:29:02.489Z,11.10
2022-09-20T07:31:31.736Z,11.10
2022-09-20T07:34:01.523Z,11.00
2022-09-20T07:36:30.120Z,11.00
2022-09-20T07:38:58.600Z,11.00
2022-09-20T07:41:30.451Z,11.80
2022-09-20T07:44:19.058Z,11.40
2022-09-20T07:46:48.955Z,11.50
2022-09-20T07:49:18.602Z,11.40
2022-09-20T07:51:47.067Z,11.30
2022-09-20T07:54:15.718Z,11.30
2022-09-20T07:59:13.763Z,11.30
2022-09-20T08:01:42.826Z,11.70
2022-09-20T08:04:12.210Z,12.60
2022-09-20T08:06:45.071Z,13.40
2022-09-20T08:09:15.079Z,13.70
2022-09-20T08:11:44.558Z,13.50
2022-09-20T08:14:16.308Z,12.70
2022-09-20T08:16:47.454Z,12.70
2022-09-20T08:19:19.200Z,12.90
2022-09-20T08:21:49.963Z,13.80
2022-09-20T08:24:18.996Z,14.80
2022-09-20T08:26:48.348Z,14.70
2022-09-20T08:29:16.707Z,13.90
2022-09-20T08:31:46.448Z,13.30
2022-09-20T08:34:17.690Z,13.10
2022-09-20T08:36:50.154Z,13.80
2022-09-20T08:42:19.999Z,15.00
2022-09-20T08:44:58.525Z,14.60
2022-09-20T08:47:31.076Z,14.00
2022-09-20T08:50:09.229Z,13.40
2022-09-20T08:52:42.360Z,13.00
2022-09-20T08:55:17.838Z,12.70
2022-09-20T08:57:50.631Z,13.00
2022-09-20T09:00:23.433Z,13.20
2022-09-20T09:02:55.487Z,13.40
2022-09-20T09:05:37.081Z,13.60
2022-09-20T09:08:16.390Z,13.50
2022-09-20T09:10:54.715Z,13.50
2022-09-20T09:13:32.173Z,13.70
2022-09-20T09:16:07.568Z,12.90
2022-09-20T09:18:41.099Z,13.30
2022-09-20T09:21:18.128Z,13.00
2022-09-20T09:23:54.405Z,12.90
2022-09-20T09:26:25.884Z,12.90
2022-09-20T09:29:16.749Z,12.90
2022-09-20T09:31:46.397Z,13.40
2022-09-20T09:34:29.743Z,14.60
2022-09-20T09:36:59.778Z,15.70
2022-09-20T09:39:32.566Z,16.60
2022-09-20T09:42:01.896Z,17.30
2022-09-20T09:44:33.240Z,18.10
2022-09-20T09:47:02.231Z,18.50
2022-09-20T09:49:34.115Z,19.40
2022-09-20T09:52:15.869Z,18.40
2022-09-20T09:54:52.030Z,16.30
2022-09-20T09:57:41.449Z,15.80
2022-09-20T10:00:21.011Z,15.80
2022-09-20T10:03:32.037Z,16.10
2022-09-20T10:06:19.179Z,17.20
2022-09-20T10:09:09.090Z,16.70
2022-09-20T10:12:06.565Z,17.00
2022-09-20T10:14:54.143Z,16.50
2022-09-20T10:17:46.260Z,17.50
2022-09-20T10:20:36.839Z,18.20
2022-09-20T10:23:51.333Z,19.40
2022-09-20T10:26:39.359Z,20.30
2022-09-20T10:29:23.432Z,19.20
2022-09-20T10:32:07.077Z,18.10
2022-09-20T10:35:10.725Z,18.00
2022-09-20T10:37:57.804Z,18.20
2022-09-20T10:40:50.051Z,18.60
2022-09-20T10:43:41.895Z,18.60
2022-09-20T10:46:32.350Z,17.80
2022-09-20T10:49:19.244Z,17.90
2022-09-20T10:52:03.555Z,17.50
2022-09-20T10:54:50.855Z,17.40
2022-09-20T10:57:46.927Z,18.20
2022-09-20T11:00:24.101Z,18.80
2022-09-20T11:03:17.215Z,18.80
2022-09-20T11:06:06.747Z,18.40
2022-09-20T11:08:38.186Z,17.50
2022-09-20T11:11:13.164Z,16.20
2022-09-20T11:13:59.316Z,15.70
2022-09-20T11:16:37.673Z,15.10
2022-09-20T11:19:23.454Z,14.60
2022-09-20T11:21:59.171Z,14.00
2022-09-20T11:24:37.317Z,14.20
2022-09-20T11:27:18.626Z,15.00
2022-09-20T11:29:54.471Z,16.00
2022-09-20T11:32:31.857Z,16.30
2022-09-20T11:35:15.740Z,16.70
2022-09-20T11:37:55.179Z,17.00
2022-09-20T11:40:30.864Z,17.00
2022-09-20T11:43:06.065Z,17.50
2022-09-20T11:45:39.158Z,17.40
2022-09-20T11:48:19.525Z,17.10
2022-09-20T11:54:01.748Z,15.30
2022-09-20T11:56:32.515Z,15.50
2022-09-20T11:59:04.129Z,16.20
2022-09-20T12:01:35.705Z,16.80
2022-09-20T12:07:09.769Z,18.30
2022-09-20T12:09:46.185Z,19.00
2022-09-20T12:12:30.400Z,19.30
2022-09-20T12:15:02.484Z,19.30
2022-09-20T12:18:16.500Z,19.30
2022-09-20T12:21:16.200Z,19.30
2022-09-20T12:24:23.527Z,19.50
2022-09-20T12:26:59.979Z,19.50
2022-09-20T12:30:05.953Z,18.90
2022-09-20T12:32:51.997Z,18.40
2022-09-20T12:36:01.487Z,18.00
2022-09-20T12:39:01.519Z,17.10
2022-09-20T12:41:46.541Z,16.00
2022-09-20T12:44:31.358Z,15.30
2022-09-20T12:52:57.527Z,13.80
2022-09-20T12:55:55.327Z,14.30
2022-09-20T12:58:41.585Z,14.70
2022-09-20T13:01:35.742Z,15.60
2022-09-20T13:05:03.363Z,16.10
2022-09-20T13:07:53.137Z,15.60
2022-09-20T13:10:31.712Z,15.10
2022-09-20T13:13:13.496Z,14.80
2022-09-20T13:15:42.052Z,15.10
2022-09-20T13:18:16.535Z,15.10
2022-09-20T13:20:45.205Z,15.10
2022-09-20T13:23:24.612Z,15.30
2022-09-20T13:25:54.201Z,15.30
2022-09-20T13:28:34.623Z,15.40
2022-09-20T13:31:29.392Z,15.30
2022-09-20T13:34:21.789Z,15.10
2022-09-20T13:36:56.338Z,15.50
2022-09-20T13:39:36.833Z,15.80
2022-09-20T13:42:19.426Z,16.30
2022-09-20T13:44:49.356Z,17.00
2022-09-20T13:47:27.026Z,17.50
2022-09-20T13:50:02.100Z,17.50
2022-09-20T13:52:32.775Z,17.10
2022-09-20T13:55:01.152Z,15.60
2022-09-20T13:57:31.542Z,14.70
2022-09-20T14:00:01.687Z,14.10
2022-09-20T14:02:40.350Z,13.80
2022-09-20T14:05:19.748Z,13.70
2022-09-20T14:10:34.746Z,13.60
2022-09-20T14:13:07.649Z,13.50
2022-09-20T14:15:40.248Z,13.40
2022-09-20T14:18:15.343Z,13.70
2022-09-20T14:20:46.933Z,14.00
2022-09-20T14:23:24.867Z,14.30
2022-09-20T14:26:24.600Z,14.50
2022-09-20T14:28:54.379Z,14.80
2022-09-20T14:31:28.843Z,14.90
2022-09-20T14:34:01.978Z,14.90
2022-09-20T14:36:32.586Z,14.90
2022-09-20T14:39:05.990Z,14.80
2022-09-20T14:41:38.198Z,14.90
2022-09-20T14:44:24.927Z,15.30
2022-09-20T14:46:54.367Z,15.90
2022-09-20T14:49:34.501Z,15.90
2022-09-20T14:52:43.824Z,15.60
2022-09-20T14:55:28.240Z,15.10
2022-09-20T14:58:03.221Z,14.60
2022-09-20T15:00:47.611Z,14.50
2022-09-20T15:03:22.392Z,14.30
2022-09-20T15:05:51.862Z,13.90
2022-09-20T15:08:21.621Z,13.70
2022-09-20T15:10:50.300Z,13.80
2022-09-20T15:13:19.121Z,13.80
2022-09-20T15:15:52.180Z,13.80
2022-09-20T15:18:25.263Z,13.80
2022-09-20T15:20:55.283Z,13.00
2022-09-20T15:23:25.249Z,13.60
2022-09-20T15:25:56.449Z,13.50
2022-09-20T15:28:26.717Z,13.70
2022-09-20T15:30:55.173Z,14.00
2022-09-20T15:33:23.915Z,14.00
2022-09-20T15:35:53.158Z,14.20
2022-09-20T15:38:22.686Z,14.40
2022-09-20T15:40:52.277Z,14.70
2022-09-20T15:43:24.224Z,14.80
2022-09-20T15:45:54.889Z,14.80
2022-09-20T15:51:03.073Z,15.00
2022-09-20T15:53:34.263Z,15.10
2022-09-20T15:56:06.610Z,14.70
2022-09-20T15:58:36.704Z,14.60
2022-09-20T16:01:08.064Z,14.60
2022-09-20T16:03:37.628Z,14.50
2022-09-20T16:06:08.557Z,17.80
2022-09-20T16:08:39.584Z,14.70
2022-09-20T16:11:13.460Z,14.60
2022-09-20T16:13:42.283Z,14.50
2022-09-20T16:16:15.771Z,14.40
2022-09-20T16:19:02.652Z,14.30
2022-09-20T16:21:31.246Z,14.20
2022-09-20T16:24:01.466Z,14.10
2022-09-20T16:26:31.721Z,14.00
2022-09-20T16:31:37.366Z,13.70
2022-09-20T16:34:13.471Z,13.70
2022-09-20T16:36:43.463Z,13.30
2022-09-20T16:39:14.148Z,13.70
2022-09-20T16:41:47.023Z,13.50
2022-09-20T16:44:16.420Z,13.50
2022-09-20T16:49:15.546Z,13.70
2022-09-20T16:51:46.481Z,13.30
2022-09-20T16:54:17.082Z,13.30
2022-09-20T16:56:49.761Z,13.20
2022-09-20T16:59:21.522Z,13.10
2022-09-20T17:01:52.853Z,12.90
2022-09-20T17:04:21.661Z,12.90
2022-09-20T17:06:52.068Z,12.70
2022-09-20T17:09:21.023Z,12.50
2022-09-20T17:11:53.825Z,12.30
2022-09-20T17:14:22.544Z,12.10
2022-09-20T17:16:51.466Z,11.90
2022-09-20T17:19:21.957Z,10.20
2022-09-20T17:21:52.928Z,11.60
2022-09-20T17:24:24.948Z,10.50
2022-09-20T17:26:54.690Z,11.70
2022-09-20T17:29:23.336Z,11.70
2022-09-20T17:31:57.328Z,11.70
2022-09-20T17:34:29.808Z,11.70
2022-09-20T17:36:58.230Z,11.70
2022-09-20T17:39:26.792Z,11.70
2022-09-20T17:41:56.615Z,11.70
2022-09-20T17:44:25.024Z,11.60
2022-09-20T17:46:54.081Z,11.60
2022-09-20T17:49:26.339Z,12.80
2022-09-20T17:51:56.852Z,11.60
2022-09-20T17:54:26.307Z,11.50
2022-09-20T17:56:56.738Z,11.40
2022-09-20T17:59:26.205Z,11.20
2022-09-20T18:01:55.655Z,10.90
2022-09-20T18:04:25.071Z,10.80
2022-09-20T18:06:55.527Z,10.70
2022-09-20T18:09:27.209Z,11.30
2022-09-20T18:11:57.564Z,10.60
2022-09-20T18:14:30.270Z,10.50
2022-09-20T18:17:02.148Z,10.50
2022-09-20T18:19:33.522Z,10.50
2022-09-20T18:24:32.052Z,10.10
2022-09-20T18:29:36.501Z,10.20
2022-09-20T18:34:34.710Z,10.10
2022-09-20T18:37:06.225Z,9.50
2022-09-20T18:39:35.829Z,10.10
2022-09-20T18:42:08.066Z,10.00
2022-09-20T18:44:37.183Z,9.70
2022-09-20T18:49:35.310Z,9.80
2022-09-20T18:52:04.767Z,9.60
2022-09-20T18:54:33.569Z,9.50
2022-09-20T18:59:33.534Z,9.30
2022-09-20T19:02:45.619Z,9.10
2022-09-20T19:08:24.502Z,8.90
2022-09-20T19:10:58.207Z,8.80
2022-09-20T19:13:43.181Z,8.60
2022-09-20T19:16:21.131Z,8.50
2022-09-20T19:19:34.858Z,8.50
2022-09-20T19:22:16.405Z,8.40
2022-09-20T19:25:03.960Z,8.40
2022-09-20T19:30:02.371Z,6.90
2022-09-20T19:32:34.633Z,8.00
2022-09-20T19:35:04.010Z,7.90
2022-09-20T19:37:42.445Z,7.90
2022-09-20T19:40:35.677Z,7.80
2022-09-20T19:43:35.016Z,7.90
2022-09-20T19:46:27.009Z,7.80
2022-09-20T19:49:09.991Z,7.70
2022-09-20T19:51:42.111Z,7.60
2022-09-20T19:54:13.329Z,7.50
2022-09-20T19:56:54.201Z,7.50
2022-09-20T19:59:25.148Z,7.50
2022-09-20T20:01:54.811Z,7.40
2022-09-20T20:07:08.524Z,7.50
2022-09-20T20:09:46.780Z,7.50
2022-09-20T20:12:25.672Z,7.50
2022-09-20T20:15:09.735Z,7.60
2022-09-20T20:17:52.607Z,7.60
2022-09-20T20:20:36.524Z,7.60
2022-09-20T20:23:52.081Z,7.70
2022-09-20T20:26:23.642Z,7.80
2022-09-20T20:28:52.870Z,7.90
2022-09-20T20:31:21.626Z,7.90
2022-09-20T20:36:20.598Z,7.90
2022-09-20T20:38:52.647Z,7.90
2022-09-20T20:41:23.685Z,7.80
2022-09-20T20:43:56.115Z,7.80
2022-09-20T20:46:25.768Z,7.70
2022-09-20T20:48:54.263Z,7.80
2022-09-20T20:51:24.485Z,7.70
2022-09-20T20:53:55.111Z,7.70
2022-09-20T20:56:27.558Z,7.80
2022-09-20T20:59:00.751Z,7.70
2022-09-20T21:01:31.673Z,7.70
2022-09-20T21:04:01.088Z,7.60
2022-09-20T21:06:33.081Z,7.70
2022-09-20T21:09:02.986Z,7.70
2022-09-20T21:11:34.476Z,7.70
2022-09-20T21:14:06.653Z,7.60
2022-09-20T21:16:37.534Z,7.50
2022-09-20T21:19:09.480Z,7.40
2022-09-20T21:21:42.638Z,7.20
2022-09-20T21:24:14.710Z,7.10
2022-09-20T21:26:42.991Z,7.00
2022-09-20T21:29:12.790Z,7.10
2022-09-20T21:34:15.385Z,8.10
2022-09-20T21:36:45.947Z,7.10
2022-09-20T21:39:14.761Z,7.10
2022-09-20T21:41:43.367Z,7.00
2022-09-20T21:44:12.051Z,6.90
2022-09-20T21:46:42.357Z,6.90
2022-09-20T21:49:13.085Z,7.00
2022-09-20T21:51:45.184Z,7.10
2022-09-20T21:54:13.441Z,4.20
2022-09-20T21:56:42.191Z,7.30
2022-09-20T21:59:10.566Z,7.30
2022-09-20T22:04:12.075Z,7.10
2022-09-20T22:06:42.478Z,7.40
2022-09-20T22:09:14.475Z,7.50
2022-09-20T22:11:45.738Z,7.50
2022-09-20T22:14:17.377Z,8.00
2022-09-20T22:19:18.485Z,7.30
2022-09-20T22:24:19.661Z,6.90
2022-09-20T22:26:50.629Z,6.80
2022-09-20T22:29:19.622Z,6.60
2022-09-20T22:31:50.146Z,6.70
2022-09-20T22:34:21.379Z,6.70
2022-09-20T22:36:50.354Z,6.80
2022-09-20T22:41:49.007Z,7.00
2022-09-20T22:44:17.543Z,7.10
2022-09-20T22:49:14.338Z,7.10
2022-09-20T22:51:42.597Z,7.20
2022-09-20T22:54:12.809Z,7.20
2022-09-20T22:59:13.621Z,7.10
2022-09-20T23:01:44.518Z,7.10
2022-09-20T23:04:15.259Z,7.00
2022-09-20T23:06:48.031Z,6.90
2022-09-20T23:09:18.879Z,7.00
2022-09-20T23:11:48.980Z,6.90
2022-09-20T23:14:19.492Z,6.80
2022-09-20T23:16:49.034Z,6.80
2022-09-20T23:19:18.269Z,6.90
2022-09-20T23:21:47.138Z,6.70
2022-09-20T23:24:16.503Z,6.70
2022-09-20T23:29:17.377Z,6.50
2022-09-20T23:31:47.827Z,6.40
2022-09-20T23:34:17.835Z,6.20
2022-09-20T23:36:47.355Z,6.80
2022-09-20T23:39:16.820Z,6.00
2022-09-20T23:41:50.113Z,5.90
2022-09-20T23:44:20.827Z,5.80
2022-09-20T23:46:49.059Z,5.80
2022-09-20T23:54:14.424Z,5.70
2022-09-20T23:56:42.811Z,6.80
